createdAt,value
2022-11-21T00:00:48.792Z,22.17
2022-11-21T00:03:15.193Z,16.20
2022-11-21T00:05:42.974Z,19.33
2022-11-21T00:08:10.232Z,18.27
2022-11-21T00:10:36.858Z,14.95
2022-11-21T00:13:03.253Z,15.10
2022-11-21T00:15:29.640Z,15.80
2022-11-21T00:17:56.061Z,17.83
2022-11-21T00:20:22.508Z,18.40
2022-11-21T00:22:49.109Z,19.17
2022-11-21T00:25:15.688Z,14.68
2022-11-21T00:27:42.214Z,16.23
2022-11-21T00:30:09.547Z,17.75
2022-11-21T00:32:35.999Z,18.20
2022-11-21T00:35:02.431Z,18.42
2022-11-21T00:37:28.827Z,18.85
2022-11-21T00:39:55.214Z,16.10
2022-11-21T00:42:21.608Z,19.75
2022-11-21T00:44:48.004Z,16.45
2022-11-21T00:47:14.396Z,17.95
2022-11-21T00:49:40.845Z,16.45
2022-11-21T00:52:07.290Z,17.90
2022-11-21T00:54:33.660Z,17.65
2022-11-21T00:57:00.051Z,16.98
2022-11-21T00:59:26.434Z,18.88
2022-11-21T01:01:52.844Z,18.63
2022-11-21T01:04:19.212Z,18.05
2022-11-21T01:06:45.649Z,19.02
2022-11-21T01:09:12.056Z,17.52
2022-11-21T01:11:38.449Z,19.02
2022-11-21T01:14:04.926Z,15.45
2022-11-21T01:16:31.645Z,16.52
2022-11-21T01:18:58.110Z,17.20
2022-11-21T01:21:26.289Z,17.27
2022-11-21T01:23:52.665Z,18.23
2022-11-21T01:26:20.626Z,17.00
2022-11-21T01:28:47.113Z,18.50
2022-11-21T01:31:21.199Z,15.68
2022-11-21T01:33:47.973Z,18.33
2022-11-21T01:36:17.190Z,18.65
2022-11-21T01:38:45.188Z,15.40
2022-11-21T01:41:12.041Z,13.90
2022-11-21T01:43:38.828Z,15.50
2022-11-21T01:46:05.115Z,16.50
2022-11-21T01:48:54.127Z,15.15
2022-11-21T01:51:22.743Z,14.25
2022-11-21T01:54:07.706Z,13.50
2022-11-21T01:56:37.630Z,14.32
2022-11-21T01:59:04.029Z,13.30
2022-11-21T02:01:30.513Z,15.07
2022-11-21T02:03:57.106Z,15.68
2022-11-21T02:06:24.033Z,14.20
2022-11-21T02:08:50.443Z,15.45
2022-11-21T02:11:45.986Z,13.60
2022-11-21T02:14:12.378Z,12.32
2022-11-21T02:16:38.821Z,15.05
2022-11-21T02:19:05.290Z,14.07
2022-11-21T02:21:50.371Z,15.48
2022-11-21T02:24:46.007Z,13.50
2022-11-21T02:27:12.418Z,16.73
2022-11-21T02:29:39.448Z,13.68
2022-11-21T02:32:06.117Z,14.45
2022-11-21T02:34:33.105Z,15.85
2022-11-21T02:36:59.828Z,15.40
2022-11-21T02:39:28.734Z,15.18
2022-11-21T02:42:12.829Z,15.90
2022-11-21T02:44:46.168Z,14.82
2022-11-21T02:47:12.552Z,14.27
2022-11-21T02:49:56.462Z,16.08
2022-11-21T02:52:22.892Z,14.52
2022-11-21T02:54:49.285Z,16.88
2022-11-21T02:57:15.661Z,15.32
2022-11-21T02:59:42.127Z,14.40
2022-11-21T03:02:08.537Z,13.60
2022-11-21T03:04:34.943Z,14.13
2022-11-21T03:07:01.440Z,14.73
2022-11-21T03:09:27.884Z,14.43
2022-11-21T03:11:54.305Z,12.23
2022-11-21T03:14:20.729Z,13.05
2022-11-21T03:16:47.140Z,10.88
2022-11-21T03:19:13.512Z,11.77
2022-11-21T03:21:39.891Z,14.13
2022-11-21T03:24:06.939Z,15.25
2022-11-21T03:26:33.343Z,12.10
2022-11-21T03:28:59.851Z,12.35
2022-11-21T03:31:26.242Z,14.45
2022-11-21T03:33:52.635Z,16.60
2022-11-21T03:36:19.031Z,16.98
2022-11-21T03:38:45.454Z,15.68
2022-11-21T03:41:11.864Z,12.82
2022-11-21T03:43:38.287Z,14.90
2022-11-21T03:46:04.665Z,11.98
2022-11-21T03:48:31.491Z,13.15
2022-11-21T03:50:57.877Z,17.92
2022-11-21T03:53:24.265Z,18.30
2022-11-21T03:55:50.687Z,13.00
2022-11-21T03:58:17.087Z,14.15
2022-11-21T04:00:43.527Z,20.33
2022-11-21T04:03:09.943Z,15.27
2022-11-21T04:05:36.347Z,14.27
2022-11-21T04:08:02.773Z,14.20
2022-11-21T04:10:29.173Z,15.45
2022-11-21T04:12:55.559Z,15.05
2022-11-21T04:15:21.978Z,14.85
2022-11-21T04:17:48.360Z,16.88
2022-11-21T04:20:15.328Z,14.07
2022-11-21T04:22:42.286Z,15.43
2022-11-21T04:25:08.759Z,13.07
2022-11-21T04:27:35.181Z,13.93
2022-11-21T04:30:01.860Z,15.15
2022-11-21T04:32:28.271Z,15.60
2022-11-21T04:34:54.661Z,11.20
2022-11-21T04:37:21.134Z,18.33
2022-11-21T04:39:47.549Z,15.13
2022-11-21T04:42:13.988Z,12.75
2022-11-21T04:44:40.382Z,13.77
2022-11-21T04:47:06.778Z,14.48
2022-11-21T04:49:33.225Z,16.75
2022-11-21T04:51:59.718Z,16.58
2022-11-21T04:54:26.454Z,16.25
2022-11-21T04:56:53.076Z,12.32
2022-11-21T04:59:19.479Z,14.63
2022-11-21T05:01:45.889Z,12.85
2022-11-21T05:04:13.621Z,15.13
2022-11-21T05:06:39.989Z,13.05
2022-11-21T05:09:06.378Z,12.68
2022-11-21T05:11:32.794Z,15.20
2022-11-21T05:13:59.192Z,17.15
2022-11-21T05:16:25.585Z,13.50
2022-11-21T05:18:51.955Z,12.98
2022-11-21T05:21:18.370Z,12.52
2022-11-21T05:23:44.741Z,10.27
2022-11-21T05:26:11.241Z,14.48
2022-11-21T05:28:37.624Z,13.88
2022-11-21T05:31:04.053Z,12.18
2022-11-21T05:33:30.428Z,14.10
2022-11-21T05:35:56.871Z,14.57
2022-11-21T05:38:23.263Z,16.30
2022-11-21T05:40:52.169Z,14.82
2022-11-21T05:43:18.601Z,13.60
2022-11-21T05:45:45.039Z,14.60
2022-11-21T05:48:11.457Z,15.73
2022-11-21T05:50:37.924Z,9.40
2022-11-21T05:53:04.601Z,15.57
2022-11-21T05:55:31.476Z,12.15
2022-11-21T05:57:58.932Z,13.25
2022-11-21T06:00:25.401Z,11.30
2022-11-21T06:02:51.867Z,13.45
2022-11-21T06:05:18.294Z,11.43
2022-11-21T06:07:44.769Z,12.75
2022-11-21T06:10:11.390Z,12.32
2022-11-21T06:12:37.824Z,13.35
2022-11-21T06:15:04.374Z,13.52
2022-11-21T06:17:30.792Z,12.50
2022-11-21T06:19:57.252Z,11.63
2022-11-21T06:22:23.696Z,12.40
2022-11-21T06:24:50.104Z,14.82
2022-11-21T06:27:16.560Z,12.57
2022-11-21T06:29:42.983Z,12.85
2022-11-21T06:32:09.428Z,11.82
2022-11-21T06:34:35.837Z,13.65
2022-11-21T06:37:02.264Z,12.88
2022-11-21T06:39:28.670Z,11.55
2022-11-21T06:41:55.084Z,15.50
2022-11-21T06:44:21.473Z,13.88
2022-11-21T06:46:51.153Z,12.35
2022-11-21T06:51:44.281Z,12.25
2022-11-21T06:54:16.248Z,13.50
2022-11-21T06:56:43.095Z,13.60
2022-11-21T06:59:09.494Z,15.50
2022-11-21T07:01:35.945Z,12.45
2022-11-21T07:04:02.520Z,12.35
2022-11-21T07:06:28.924Z,12.25
2022-11-21T07:09:25.557Z,9.43
2022-11-21T07:11:41.760Z,11.30
2022-11-21T07:14:09.455Z,12.13
2022-11-21T07:16:36.067Z,11.00
2022-11-21T07:19:02.512Z,13.23
2022-11-21T07:21:28.925Z,11.55
2022-11-21T07:23:55.341Z,10.48
2022-11-21T07:26:21.794Z,14.23
2022-11-21T07:28:48.181Z,13.45
2022-11-21T07:31:14.665Z,11.73
2022-11-21T07:33:41.700Z,16.08
2022-11-21T07:36:08.132Z,14.50
2022-11-21T07:38:34.875Z,14.25
2022-11-21T07:41:01.291Z,15.63
2022-11-21T07:43:27.695Z,13.63
2022-11-21T07:45:54.201Z,12.15
2022-11-21T07:48:20.617Z,11.43
2022-11-21T07:50:47.021Z,11.27
2022-11-21T07:53:13.445Z,15.10
2022-11-21T07:55:40.947Z,11.25
2022-11-21T07:58:15.490Z,15.30
2022-11-21T08:00:42.122Z,13.75
2022-11-21T08:03:08.538Z,12.45
2022-11-21T08:05:43.199Z,11.13
2022-11-21T08:08:12.997Z,13.40
2022-11-21T08:10:40.354Z,12.95
2022-11-21T08:13:07.407Z,11.50
2022-11-21T08:15:33.822Z,12.45
2022-11-21T08:18:10.410Z,11.77
2022-11-21T08:20:36.832Z,10.10
2022-11-21T08:23:03.461Z,12.90
2022-11-21T08:25:29.986Z,12.88
2022-11-21T08:27:57.254Z,11.95
2022-11-21T08:30:23.898Z,14.50
2022-11-21T08:32:50.341Z,9.00
2022-11-21T08:35:16.976Z,12.68
2022-11-21T08:37:43.447Z,12.50
2022-11-21T08:40:10.685Z,11.68
2022-11-21T08:42:37.101Z,9.35
2022-11-21T08:45:05.256Z,10.30
2022-11-21T08:47:34.735Z,11.98
2022-11-21T08:50:05.817Z,11.43
2022-11-21T08:52:35.281Z,11.60
2022-11-21T08:55:01.716Z,12.43
2022-11-21T08:57:28.185Z,10.95
2022-11-21T08:59:54.672Z,11.95
2022-11-21T09:02:21.179Z,11.00
2022-11-21T09:04:47.586Z,10.73
2022-11-21T09:07:14.040Z,11.80
2022-11-21T09:09:40.505Z,12.38
2022-11-21T09:12:07.092Z,10.85
2022-11-21T09:14:33.628Z,10.93
2022-11-21T09:17:02.177Z,10.63
2022-11-21T09:19:29.382Z,13.07
2022-11-21T09:21:56.033Z,10.18
2022-11-21T09:24:22.470Z,12.73
2022-11-21T09:26:48.880Z,13.85
2022-11-21T09:29:15.337Z,14.80
2022-11-21T09:31:42.299Z,12.63
2022-11-21T09:34:08.971Z,12.88
2022-11-21T09:36:35.359Z,13.43
2022-11-21T09:39:01.964Z,15.48
2022-11-21T09:41:40.111Z,15.80
2022-11-21T09:44:17.124Z,14.85
2022-11-21T09:46:47.542Z,12.10
2022-11-21T09:49:13.997Z,12.73
2022-11-21T09:51:40.430Z,11.98
2022-11-21T09:54:09.738Z,13.60
2022-11-21T09:56:39.384Z,11.73
2022-11-21T09:59:27.402Z,14.32
2022-11-21T10:01:53.825Z,12.93
2022-11-21T10:04:20.227Z,15.57
2022-11-21T10:07:22.046Z,11.32
2022-11-21T10:10:03.745Z,15.13
2022-11-21T10:12:34.841Z,12.82
2022-11-21T10:15:25.860Z,13.07
2022-11-21T10:18:10.416Z,11.70
2022-11-21T10:21:15.325Z,12.65
2022-11-21T10:23:44.605Z,11.82
2022-11-21T10:26:42.762Z,12.77
2022-11-21T10:29:14.115Z,13.55
2022-11-21T10:31:40.513Z,13.35
2022-11-21T10:34:14.759Z,12.52
2022-11-21T10:36:42.654Z,12.63
2022-11-21T10:39:16.515Z,13.63
2022-11-21T10:41:50.813Z,15.90
2022-11-21T10:44:26.821Z,17.67
2022-11-21T10:46:57.059Z,18.67
2022-11-21T10:52:16.254Z,16.33
2022-11-21T10:55:02.411Z,17.73
2022-11-21T10:57:28.889Z,15.52
2022-11-21T11:00:01.388Z,19.75
2022-11-21T11:02:27.904Z,16.25
2022-11-21T11:05:29.628Z,16.60
2022-11-21T11:08:09.710Z,19.42
2022-11-21T11:10:36.948Z,14.73
2022-11-21T11:13:08.713Z,18.63
2022-11-21T11:16:05.159Z,16.80
2022-11-21T11:18:35.277Z,15.93
2022-11-21T11:23:37.035Z,13.80
2022-11-21T11:26:14.190Z,19.50
2022-11-21T11:28:40.593Z,19.02
2022-11-21T11:31:07.447Z,16.80
2022-11-21T11:33:37.466Z,17.83
2022-11-21T11:36:14.736Z,17.48
2022-11-21T11:38:52.633Z,16.58
2022-11-21T11:41:43.321Z,14.88
2022-11-21T11:44:13.205Z,17.13
2022-11-21T11:46:49.451Z,13.35
2022-11-21T11:49:30.859Z,14.20
2022-11-21T11:52:02.222Z,13.00
2022-11-21T11:54:31.860Z,14.10
2022-11-21T11:56:58.305Z,15.27
2022-11-21T11:59:27.858Z,14.13
2022-11-21T12:01:59.566Z,14.10
2022-11-21T12:04:26.816Z,15.60
2022-11-21T12:09:57.164Z,10.02
2022-11-21T12:12:37.124Z,12.50
2022-11-21T12:15:17.422Z,11.25
2022-11-21T12:17:55.944Z,12.13
2022-11-21T12:20:28.490Z,10.68
2022-11-21T12:22:54.920Z,8.95
2022-11-21T12:25:25.326Z,9.70
2022-11-21T12:27:53.447Z,10.98
2022-11-21T12:30:35.005Z,8.15
2022-11-21T12:33:06.797Z,9.73
2022-11-21T12:35:43.921Z,9.25
2022-11-21T12:38:20.272Z,10.40
2022-11-21T12:43:30.031Z,7.00
2022-11-21T12:46:05.281Z,7.93
2022-11-21T12:48:43.737Z,8.95
2022-11-21T12:51:16.033Z,7.70
2022-11-21T12:54:19.956Z,7.78
2022-11-21T12:56:54.960Z,9.23
2022-11-21T12:59:21.381Z,7.05
2022-11-21T13:02:00.161Z,9.40
2022-11-21T13:04:31.345Z,9.95
2022-11-21T13:06:57.762Z,7.85
2022-11-21T13:09:24.202Z,10.35
2022-11-21T13:11:53.598Z,8.57
2022-11-21T13:14:38.153Z,7.22
2022-11-21T13:17:25.879Z,9.73
2022-11-21T13:22:36.867Z,6.88
2022-11-21T13:25:04.822Z,9.45
2022-11-21T13:27:43.638Z,7.50
2022-11-21T13:30:10.060Z,7.43
2022-11-21T13:32:39.609Z,9.75
2022-11-21T13:35:21.191Z,7.22
2022-11-21T13:38:03.405Z,5.53
2022-11-21T13:40:29.795Z,4.35
2022-11-21T13:43:32.502Z,7.63
2022-11-21T13:45:59.491Z,6.50
2022-11-21T13:48:28.869Z,6.18
2022-11-21T13:51:27.449Z,7.03
2022-11-21T13:54:28.257Z,5.45
2022-11-21T13:57:13.490Z,6.95
2022-11-21T13:59:58.348Z,5.15
2022-11-21T14:02:36.080Z,4.95
2022-11-21T14:05:53.255Z,6.88
2022-11-21T14:08:23.877Z,4.50
2022-11-21T14:10:50.954Z,4.82
2022-11-21T14:13:27.843Z,5.70
2022-11-21T14:16:35.334Z,9.65
2022-11-21T14:19:01.740Z,5.30
2022-11-21T14:21:31.899Z,4.63
2022-11-21T14:24:01.373Z,5.60
2022-11-21T14:26:27.876Z,6.43
2022-11-21T14:28:54.653Z,5.30
2022-11-21T14:31:21.172Z,6.30
2022-11-21T14:33:47.900Z,6.53
2022-11-21T14:36:19.934Z,7.47
2022-11-21T14:38:51.019Z,7.20
2022-11-21T14:41:24.052Z,7.45
2022-11-21T14:43:59.476Z,5.82
2022-11-21T14:46:27.195Z,7.20
2022-11-21T14:48:53.860Z,6.00
2022-11-21T14:51:21.226Z,8.68
2022-11-21T14:53:48.186Z,7.85
2022-11-21T14:56:25.826Z,7.45
2022-11-21T14:58:52.259Z,8.10
2022-11-21T15:01:20.409Z,7.85
2022-11-21T15:04:04.522Z,6.63
2022-11-21T15:06:31.563Z,6.97
2022-11-21T15:11:54.336Z,9.50
2022-11-21T15:14:44.345Z,9.55
2022-11-21T15:17:15.813Z,7.55
2022-11-21T15:19:42.287Z,7.22
2022-11-21T15:22:37.029Z,10.25
2022-11-21T15:25:18.713Z,7.20
2022-11-21T15:27:47.219Z,7.85
2022-11-21T15:30:14.214Z,7.45
2022-11-21T15:32:59.189Z,7.40
2022-11-21T15:35:37.773Z,6.78
2022-11-21T15:38:15.796Z,8.82
2022-11-21T15:41:04.300Z,8.52
2022-11-21T15:43:38.123Z,7.00
2022-11-21T15:46:05.524Z,7.10
2022-11-21T15:48:31.925Z,6.45
2022-11-21T15:50:59.105Z,6.85
2022-11-21T15:53:25.597Z,7.85
2022-11-21T15:55:52.064Z,7.45
2022-11-21T15:58:18.551Z,6.82
2022-11-21T16:00:45.068Z,6.28
2022-11-21T16:03:11.525Z,7.72
2022-11-21T16:05:37.935Z,7.88
2022-11-21T16:08:04.896Z,7.38
2022-11-21T16:10:31.312Z,6.18
2022-11-21T16:12:57.738Z,8.05
2022-11-21T16:15:24.180Z,7.32
2022-11-21T16:17:51.608Z,6.05
2022-11-21T16:20:18.061Z,7.47
2022-11-21T16:22:47.813Z,7.68
2022-11-21T16:25:15.562Z,6.30
2022-11-21T16:27:42.026Z,6.05
2022-11-21T16:30:08.832Z,7.78
2022-11-21T16:32:35.253Z,6.07
2022-11-21T16:35:01.654Z,8.13
2022-11-21T16:37:28.073Z,5.78
2022-11-21T16:39:55.625Z,8.68
2022-11-21T16:42:22.074Z,6.50
2022-11-21T16:44:48.470Z,8.23
2022-11-21T16:47:14.996Z,6.63
2022-11-21T16:49:41.835Z,7.22
2022-11-21T16:52:10.145Z,5.55
2022-11-21T16:54:36.548Z,6.28
2022-11-21T16:57:03.008Z,8.32
2022-11-21T16:59:29.631Z,6.15
2022-11-21T17:01:56.223Z,7.85
2022-11-21T17:04:22.654Z,7.28
2022-11-21T17:06:49.123Z,7.40
2022-11-21T17:09:16.291Z,5.90
2022-11-21T17:11:42.750Z,7.32
2022-11-21T17:14:10.759Z,8.00
2022-11-21T17:16:39.407Z,8.20
2022-11-21T17:19:05.930Z,7.82
2022-11-21T17:21:32.413Z,8.85
2022-11-21T17:23:58.872Z,7.22
2022-11-21T17:26:29.059Z,9.30
2022-11-21T17:28:59.597Z,9.57
2022-11-21T17:31:26.227Z,7.63
2022-11-21T17:33:52.818Z,9.52
2022-11-21T17:36:20.608Z,12.60
2022-11-21T17:38:47.172Z,7.88
2022-11-21T17:41:14.803Z,10.02
2022-11-21T17:43:41.207Z,7.30
2022-11-21T17:46:14.841Z,11.77
2022-11-21T17:48:41.233Z,10.20
2022-11-21T17:51:15.404Z,9.70
2022-11-21T17:53:43.586Z,9.30
2022-11-21T17:56:16.909Z,11.15
2022-11-21T17:58:43.334Z,12.30
2022-11-21T18:01:10.932Z,8.60
2022-11-21T18:03:37.534Z,9.75
2022-11-21T18:06:09.619Z,9.00
2022-11-21T18:08:37.389Z,9.25
2022-11-21T18:11:04.543Z,10.27
2022-11-21T18:13:32.648Z,10.18
2022-11-21T18:16:07.001Z,11.27
2022-11-21T18:18:34.035Z,10.57
2022-11-21T18:21:11.334Z,12.45
2022-11-21T18:23:38.056Z,13.00
2022-11-21T18:26:11.133Z,12.75
2022-11-21T18:28:37.565Z,13.00
2022-11-21T18:31:09.028Z,12.32
2022-11-21T18:33:36.043Z,15.70
2022-11-21T18:36:03.078Z,10.55
2022-11-21T18:38:48.088Z,12.32
2022-11-21T18:41:23.741Z,12.32
2022-11-21T18:44:00.408Z,13.00
2022-11-21T18:46:28.707Z,11.90
2022-11-21T18:49:04.297Z,14.65
2022-11-21T18:51:32.393Z,17.20
2022-11-21T18:54:06.363Z,16.00
2022-11-21T18:56:32.929Z,19.00
2022-11-21T18:58:59.609Z,15.80
2022-11-21T19:01:27.928Z,20.33
2022-11-21T19:03:54.659Z,17.27
2022-11-21T19:06:21.976Z,14.88
2022-11-21T19:08:48.910Z,17.60
2022-11-21T19:11:15.516Z,19.10
2022-11-21T19:13:42.167Z,18.50
2022-11-21T19:16:11.413Z,18.50
2022-11-21T19:18:40.848Z,19.42
2022-11-21T19:21:13.355Z,17.67
2022-11-21T19:23:40.245Z,20.27
2022-11-21T19:26:08.754Z,19.45
2022-11-21T19:28:35.377Z,20.85
2022-11-21T19:31:02.581Z,23.63
2022-11-21T19:33:29.848Z,16.90
2022-11-21T19:36:08.585Z,18.73
2022-11-21T19:38:36.391Z,20.20
2022-11-21T19:41:04.180Z,22.17
2022-11-21T19:43:30.647Z,19.95
2022-11-21T19:46:01.876Z,20.58
2022-11-21T19:48:28.390Z,22.60
2022-11-21T19:50:58.836Z,20.48
2022-11-21T19:53:26.035Z,23.52
2022-11-21T19:55:52.602Z,17.23
2022-11-21T19:58:19.089Z,22.75
2022-11-21T20:00:45.622Z,19.92
2022-11-21T20:03:12.164Z,22.60
2022-11-21T20:05:38.655Z,19.70
2022-11-21T20:08:14.293Z,19.38
2022-11-21T20:10:43.792Z,19.35
2022-11-21T20:13:10.334Z,18.58
2022-11-21T20:15:37.892Z,16.00
2022-11-21T20:18:04.385Z,17.63
2022-11-21T20:20:30.865Z,18.25
2022-11-21T20:22:57.321Z,14.10
2022-11-21T20:25:23.700Z,17.65
2022-11-21T20:27:50.178Z,20.08
2022-11-21T20:30:16.821Z,21.25
2022-11-21T20:32:43.308Z,17.70
2022-11-21T20:35:09.697Z,18.08
2022-11-21T20:37:36.093Z,17.42
2022-11-21T20:40:02.584Z,16.48
2022-11-21T20:42:28.991Z,19.30
2022-11-21T20:47:41.923Z,16.75
2022-11-21T20:50:08.662Z,15.18
2022-11-21T20:55:21.528Z,15.88
2022-11-21T20:57:47.951Z,15.90
2022-11-21T21:00:14.844Z,16.38
2022-11-21T21:02:41.296Z,19.45
2022-11-21T21:05:08.038Z,14.70
2022-11-21T21:07:34.432Z,12.82
2022-11-21T21:10:00.864Z,17.27
2022-11-21T21:12:27.358Z,14.85
2022-11-21T21:14:53.776Z,17.60
2022-11-21T21:17:20.327Z,14.88
2022-11-21T21:19:46.839Z,16.65
2022-11-21T21:22:13.339Z,17.10
2022-11-21T21:24:39.848Z,16.55
2022-11-21T21:27:06.272Z,14.52
2022-11-21T21:29:32.976Z,15.55
2022-11-21T21:32:00.051Z,15.55
2022-11-21T21:34:26.657Z,17.33
2022-11-21T21:36:53.217Z,19.70
2022-11-21T21:39:20.848Z,17.20
2022-11-21T21:41:48.013Z,15.85
2022-11-21T21:44:15.052Z,15.85
2022-11-21T21:46:41.886Z,18.33
2022-11-21T21:49:08.383Z,15.18
2022-11-21T21:51:34.788Z,19.35
2022-11-21T21:54:01.481Z,16.95
2022-11-21T21:56:28.645Z,15.43
2022-11-21T21:58:56.277Z,15.73
2022-11-21T22:01:28.022Z,14.48
2022-11-21T22:03:55.541Z,17.75
2022-11-21T22:06:22.004Z,19.05
2022-11-21T22:08:50.184Z,17.88
2022-11-21T22:11:19.592Z,14.80
2022-11-21T22:13:47.189Z,15.75
2022-11-21T22:16:13.823Z,18.63
2022-11-21T22:18:41.662Z,16.38
2022-11-21T22:21:22.166Z,16.83
2022-11-21T22:24:17.807Z,17.08
2022-11-21T22:26:35.102Z,17.08
2022-11-21T22:29:01.525Z,14.45
2022-11-21T22:31:29.675Z,15.18
2022-11-21T22:33:56.134Z,15.63
2022-11-21T22:36:22.517Z,14.20
2022-11-21T22:38:51.868Z,12.82
2022-11-21T22:41:19.651Z,17.02
2022-11-21T22:43:49.577Z,16.83
2022-11-21T22:46:16.157Z,16.58
2022-11-21T22:48:42.616Z,14.52
2022-11-21T22:51:14.818Z,15.95
2022-11-21T22:53:41.280Z,15.68
2022-11-21T22:56:09.360Z,15.40
2022-11-21T22:58:37.567Z,15.63
2022-11-21T23:01:17.353Z,15.30
2022-11-21T23:03:43.839Z,15.15
2022-11-21T23:06:14.362Z,15.50
2022-11-21T23:08:40.883Z,12.60
2022-11-21T23:11:08.333Z,13.10
2022-11-21T23:13:35.108Z,13.10
2022-11-21T23:16:02.398Z,16.40
2022-11-21T23:18:28.895Z,15.68
2022-11-21T23:20:55.377Z,18.13
2022-11-21T23:23:21.843Z,16.02
2022-11-21T23:25:48.273Z,14.65
2022-11-21T23:28:14.678Z,14.65
2022-11-21T23:30:41.151Z,16.45
2022-11-21T23:33:07.567Z,15.77
2022-11-21T23:35:33.989Z,16.42
2022-11-21T23:38:00.407Z,14.55
2022-11-21T23:40:26.802Z,16.17
2022-11-21T23:42:53.235Z,18.75
2022-11-21T23:45:19.758Z,17.30
2022-11-21T23:47:46.702Z,16.38
2022-11-21T23:50:13.098Z,15.68
2022-11-21T23:52:39.493Z,18.52
2022-11-21T23:55:06.392Z,15.40
2022-11-21T23:57:32.873Z,15.10
2022-11-21T23:59:59.365Z,14.90
